createdAt,value
2022-12-27T00:00:02.496Z,170.054
2022-12-27T00:05:02.175Z,221.473
2022-12-27T00:10:02.085Z,289.86400000000003
2022-12-27T00:15:02.104Z,280.136
2022-12-27T00:20:08.427Z,230.659
2022-12-27T00:25:02.113Z,397.85200000000003
2022-12-27T00:30:02.209Z,2143.706
2022-12-27T00:35:02.065Z,2179.275
2022-12-27T00:40:02.136Z,1935.463
2022-12-27T00:45:02.276Z,2283.498
2022-12-27T00:50:02.314Z,2630.381
2022-12-27T00:55:02.268Z,1933.3890000000001
2022-12-27T01:00:06.296Z,306.64
2022-12-27T01:05:02.246Z,2504.113
2022-12-27T01:10:02.172Z,4818.994
2022-12-27T01:15:02.127Z,4798.148
2022-12-27T01:20:02.164Z,4803.5380000000005
2022-12-27T01:25:02.149Z,4798.917
2022-12-27T01:30:02.253Z,4798.271
2022-12-27T01:35:02.186Z,4801.366
2022-12-27T01:40:02.162Z,4888.783
2022-12-27T01:45:02.178Z,4910.173
2022-12-27T01:50:02.169Z,4909.505
2022-12-27T01:55:02.141Z,6288.2660000000005
2022-12-27T02:00:02.297Z,6805.424
2022-12-27T02:05:02.377Z,6810.1810000000005
2022-12-27T02:10:02.281Z,6819.197
2022-12-27T02:15:02.279Z,7230.129
2022-12-27T02:20:02.184Z,6347.122
2022-12-27T02:25:02.287Z,4842.042
2022-12-27T02:30:02.202Z,4923.4890000000005
2022-12-27T02:35:02.275Z,4887.203
2022-12-27T02:40:02.229Z,4863.169
2022-12-27T02:45:02.236Z,4784.975
2022-12-27T02:50:02.608Z,4788.28
2022-12-27T02:55:02.276Z,4796.149
2022-12-27T03:00:02.193Z,4633.809
2022-12-27T03:05:02.291Z,4168.436
2022-12-27T03:10:02.210Z,3653.9680000000003
2022-12-27T03:15:02.466Z,3361.063
2022-12-27T03:20:02.444Z,4984.611
2022-12-27T03:25:02.505Z,2267.37
2022-12-27T03:30:02.320Z,1965.434
2022-12-27T03:35:02.240Z,2212.937
2022-12-27T03:40:02.243Z,2399.3650000000002
2022-12-27T03:45:02.279Z,2643.84
2022-12-27T03:50:02.305Z,168.199
2022-12-27T03:55:02.302Z,167.743
2022-12-27T04:00:02.251Z,218.28
2022-12-27T04:05:02.326Z,309.395
2022-12-27T04:10:02.364Z,301.375
2022-12-27T04:15:02.271Z,264.075
2022-12-27T04:20:02.339Z,202.965
2022-12-27T04:25:02.346Z,196.592
2022-12-27T04:30:02.316Z,191.144
2022-12-27T04:35:02.448Z,190.842
2022-12-27T04:40:02.485Z,190.475
2022-12-27T04:45:02.426Z,167.91400000000002
2022-12-27T04:50:02.431Z,287.204
2022-12-27T04:55:02.341Z,280.431
2022-12-27T05:00:02.346Z,1071.794
2022-12-27T05:05:02.310Z,2150.108
2022-12-27T05:10:02.346Z,2148.882
2022-12-27T05:15:02.357Z,2175.2870000000003
2022-12-27T05:20:02.343Z,392.858
2022-12-27T05:25:02.366Z,167.918
2022-12-27T05:30:02.337Z,192.639
2022-12-27T05:35:02.413Z,257.458
2022-12-27T05:40:02.391Z,308.971
2022-12-27T05:45:02.334Z,300.8
2022-12-27T05:50:02.538Z,226.48000000000002
2022-12-27T05:55:02.525Z,169.55700000000002
2022-12-27T06:00:02.581Z,170.197
2022-12-27T06:05:02.405Z,170.695
2022-12-27T06:10:02.394Z,628.6990000000001
2022-12-27T06:15:02.397Z,2143.35
2022-12-27T06:20:02.460Z,2178.88
2022-12-27T06:25:02.610Z,2333.734
2022-12-27T06:30:02.346Z,2074.413
2022-12-27T06:35:02.413Z,2867.317
2022-12-27T06:40:02.386Z,1453.5040000000001
2022-12-27T06:45:02.426Z,211.55
2022-12-27T06:50:02.425Z,212.423
2022-12-27T06:55:02.401Z,190.236
2022-12-27T07:00:02.783Z,187.696
2022-12-27T07:05:02.655Z,186.859
2022-12-27T07:10:02.542Z,275.31
2022-12-27T07:15:02.556Z,300.848
2022-12-27T07:20:02.556Z,295.859
2022-12-27T07:25:02.478Z,214.737
2022-12-27T07:30:02.488Z,187.561
2022-12-27T07:35:02.430Z,186.34
2022-12-27T07:40:02.497Z,351.94
2022-12-27T07:45:02.476Z,2158.565
2022-12-27T07:50:02.532Z,2169.063
2022-12-27T07:55:02.470Z,2224.622
2022-12-27T08:00:02.476Z,2576.175
2022-12-27T08:05:02.520Z,2574.295
2022-12-27T08:10:02.473Z,350.235
2022-12-27T08:15:02.826Z,240.38
2022-12-27T08:20:02.625Z,1290.4750000000001
2022-12-27T08:25:02.700Z,879.37
2022-12-27T08:30:02.559Z,234.4
2022-12-27T08:35:24.892Z,248.363
2022-12-27T08:40:03.011Z,755.445
2022-12-27T08:45:02.507Z,1673.983
2022-12-27T08:50:02.586Z,1514.213
2022-12-27T08:55:02.569Z,1714.482
2022-12-27T09:00:02.545Z,1899.9370000000001
2022-12-27T09:05:02.537Z,4439.117
2022-12-27T09:10:02.589Z,3973.1730000000002
2022-12-27T09:15:02.546Z,2832.165
2022-12-27T09:20:02.637Z,2382.973
2022-12-27T09:25:02.768Z,3079.152
2022-12-27T09:30:02.686Z,2681.733
2022-12-27T09:35:02.667Z,2437.532
2022-12-27T09:40:02.573Z,2466.311
2022-12-27T09:45:02.614Z,2639.044
2022-12-27T09:50:02.643Z,2853.538
2022-12-27T09:55:04.966Z,1940.3690000000001
2022-12-27T10:00:02.562Z,371.211
2022-12-27T10:05:21.825Z,347.17900000000003
2022-12-27T10:10:02.611Z,307.90000000000003
2022-12-27T10:15:02.564Z,332.981
2022-12-27T10:20:02.695Z,400.358
2022-12-27T10:25:02.640Z,365.355
2022-12-27T10:30:02.615Z,332.89300000000003
2022-12-27T10:35:02.959Z,209.993
2022-12-27T10:40:02.749Z,174.751
2022-12-27T10:45:02.758Z,175.941
2022-12-27T10:50:02.730Z,174.958
2022-12-27T10:55:02.597Z,175.161
2022-12-27T11:00:02.672Z,176.053
2022-12-27T11:05:02.674Z,1700.3120000000001
2022-12-27T11:10:02.806Z,2271.355
2022-12-27T11:15:02.632Z,2281.285
2022-12-27T11:20:02.729Z,2094.659
2022-12-27T11:25:02.680Z,2420.981
2022-12-27T11:30:02.689Z,2797.593
2022-12-27T11:35:02.698Z,666.697
2022-12-27T11:40:02.679Z,202.411
2022-12-27T11:45:02.669Z,210.59
2022-12-27T11:50:02.882Z,210.274
2022-12-27T11:55:02.834Z,293.278
2022-12-27T12:00:02.779Z,291.192
2022-12-27T12:05:02.716Z,285.293
2022-12-27T12:10:02.708Z,180.53300000000002
2022-12-27T12:15:02.665Z,196.209
2022-12-27T12:20:02.697Z,205.768
2022-12-27T12:25:02.759Z,556.982
2022-12-27T12:30:02.706Z,2169.701
2022-12-27T12:35:02.686Z,2164.152
2022-12-27T12:40:02.702Z,2243.931
2022-12-27T12:45:02.717Z,2611.651
2022-12-27T12:50:05.468Z,2263.218
2022-12-27T12:55:02.724Z,217.394
2022-12-27T13:00:02.689Z,176.198
2022-12-27T13:13:37.282Z,175.031
2022-12-27T13:15:02.869Z,2138.45
2022-12-27T13:20:02.911Z,1726.8410000000001
2022-12-27T13:25:02.818Z,1251.771
2022-12-27T13:30:06.571Z,1259.82
2022-12-27T13:35:02.830Z,632.999
2022-12-27T13:40:02.797Z,408.372
2022-12-27T13:45:02.767Z,368.633
2022-12-27T13:50:02.776Z,695.422
2022-12-27T13:55:02.781Z,1558.953
2022-12-27T14:00:02.741Z,2267.032
2022-12-27T14:05:02.766Z,2260.872
2022-12-27T14:10:02.797Z,2294.272
2022-12-27T14:15:02.763Z,2143.0280000000002
2022-12-27T14:20:02.798Z,2932.602
2022-12-27T14:25:02.769Z,1718.881
2022-12-27T14:30:02.791Z,299.975
2022-12-27T14:35:02.932Z,271.621
2022-12-27T14:40:02.935Z,271.409
2022-12-27T14:45:02.915Z,274.233
2022-12-27T14:50:02.885Z,271.229
2022-12-27T14:55:02.861Z,293.18
2022-12-27T15:00:02.834Z,325.63100000000003
2022-12-27T15:05:02.847Z,410.01300000000003
2022-12-27T15:10:02.840Z,410.462
2022-12-27T15:15:02.839Z,1585.015
2022-12-27T15:20:02.873Z,2288.844
2022-12-27T15:25:02.885Z,2275.66
2022-12-27T15:30:02.882Z,2304.4120000000003
2022-12-27T15:35:02.831Z,2441.498
2022-12-27T15:40:02.891Z,2926.939
2022-12-27T15:45:03.115Z,1147.448
2022-12-27T15:50:03.031Z,557.237
2022-12-27T15:55:03.089Z,558.946
2022-12-27T16:00:02.992Z,533.398
2022-12-27T16:05:02.900Z,431.454
2022-12-27T16:10:02.878Z,426.46500000000003
2022-12-27T16:15:02.881Z,430.067
2022-12-27T16:20:02.918Z,1015.99
2022-12-27T16:25:02.935Z,1002.546
2022-12-27T16:30:02.877Z,1735.757
2022-12-27T16:35:02.864Z,1542.616
2022-12-27T16:40:02.930Z,2475.659
2022-12-27T16:45:02.998Z,2424.84
2022-12-27T16:50:02.934Z,2179.2200000000003
2022-12-27T16:55:03.151Z,2441.168
2022-12-27T17:00:03.031Z,2451.494
2022-12-27T17:05:03.025Z,2902.686
2022-12-27T17:10:02.944Z,1596.51
2022-12-27T17:15:02.978Z,406.445
2022-12-27T17:20:03.126Z,425.991
2022-12-27T17:25:03.048Z,642.5500000000001
2022-12-27T17:30:02.932Z,1590.282
2022-12-27T17:35:02.969Z,2179.483
2022-12-27T17:40:02.987Z,3838.281
2022-12-27T17:45:03.445Z,4817.900000000001
2022-12-27T17:50:02.992Z,4810.691
2022-12-27T17:55:03.033Z,3780.0950000000003
2022-12-27T18:00:02.937Z,2803.265
2022-12-27T18:05:03.116Z,2660.187
2022-12-27T18:10:03.133Z,2790.509
2022-12-27T18:15:03.120Z,2988.596
2022-12-27T18:20:03.119Z,3360.005
2022-12-27T18:25:03.075Z,1738.281
2022-12-27T18:30:03.017Z,567.437
2022-12-27T18:35:02.994Z,553.314
2022-12-27T18:40:03.016Z,548.302
2022-12-27T18:45:03.038Z,610.417
2022-12-27T18:50:03.145Z,515.4300000000001
2022-12-27T18:55:03.091Z,574.894
2022-12-27T19:00:02.999Z,695.812
2022-12-27T19:05:03.065Z,603.7090000000001
2022-12-27T19:10:03.018Z,2269.728
2022-12-27T19:15:03.054Z,2615.94
2022-12-27T19:20:03.260Z,2593.485
2022-12-27T19:25:03.219Z,2805.4320000000002
2022-12-27T19:30:03.226Z,2880.0480000000002
2022-12-27T19:35:03.230Z,2822.4120000000003
2022-12-27T19:40:03.149Z,3113.452
2022-12-27T19:45:03.101Z,2663.1710000000003
2022-12-27T19:50:03.126Z,632.9590000000001
2022-12-27T19:55:03.129Z,584.677
2022-12-27T20:00:07.011Z,758.532
2022-12-27T20:05:03.231Z,461.262
2022-12-27T20:10:03.070Z,446.41
2022-12-27T20:15:03.167Z,409.994
2022-12-27T20:20:03.092Z,402.473
2022-12-27T20:25:03.086Z,414.966
2022-12-27T20:30:03.140Z,2000.876
2022-12-27T20:35:03.182Z,2514.165
2022-12-27T20:40:03.143Z,2529.0460000000003
2022-12-27T20:45:03.141Z,2247.724
2022-12-27T20:50:03.138Z,2088.238
2022-12-27T20:55:03.333Z,2467.023
2022-12-27T21:00:03.267Z,2820.469
2022-12-27T21:05:03.291Z,1983.181
2022-12-27T21:10:03.238Z,1160.135
2022-12-27T21:15:03.127Z,1269.003
2022-12-27T21:20:03.440Z,1441.08
2022-12-27T21:25:03.159Z,1403.7250000000001
2022-12-27T21:30:03.217Z,1372.136
2022-12-27T21:35:03.156Z,1380.4270000000001
2022-12-27T21:40:03.158Z,1392.366
2022-12-27T21:45:03.152Z,1374.965
2022-12-27T21:50:03.167Z,1440.086
2022-12-27T21:55:03.207Z,3453.477
2022-12-27T22:00:03.212Z,3457.8940000000002
2022-12-27T22:05:03.273Z,3692.3430000000003
2022-12-27T22:10:03.168Z,3897.848
2022-12-27T22:15:03.331Z,4035.9390000000003
2022-12-27T22:20:03.263Z,1516.395
2022-12-27T22:25:03.196Z,1531.778
2022-12-27T22:30:03.211Z,1338.515
2022-12-27T22:35:03.387Z,703.754
2022-12-27T22:40:03.342Z,763.75
2022-12-27T22:45:03.339Z,756.11
2022-12-27T22:50:03.393Z,759.96
2022-12-27T22:55:06.699Z,868.561
2022-12-27T23:00:03.220Z,865.296
2022-12-27T23:05:03.256Z,1057.907
2022-12-27T23:10:03.215Z,2636.255
2022-12-27T23:15:03.254Z,2634.951
2022-12-27T23:20:03.295Z,2317.0480000000002
2022-12-27T23:25:03.224Z,2697.843
2022-12-27T23:30:03.254Z,3235.637
2022-12-27T23:35:03.271Z,896.714
2022-12-27T23:40:03.300Z,685.1220000000001
2022-12-27T23:45:03.285Z,700.439
2022-12-27T23:50:03.327Z,630.004
2022-12-27T23:55:03.297Z,586.431
